createdAt,value
2024-02-29T00:02:17.457Z,101685.78
2024-02-29T00:04:44.254Z,101686.22
2024-02-29T00:07:10.925Z,101679.16
2024-02-29T00:09:37.798Z,101673.53
2024-02-29T00:12:05.302Z,101672.31
2024-02-29T00:14:32.379Z,101670.13
2024-02-29T00:17:01.598Z,101663.06
2024-02-29T00:19:29.021Z,101667.91
2024-02-29T00:21:55.749Z,101664.47
2024-02-29T00:24:22.309Z,101664.47
2024-02-29T00:26:49.161Z,101664.28
2024-02-29T00:29:15.692Z,101662.66
2024-02-29T00:31:46.068Z,101650.19
2024-02-29T00:34:13.812Z,101655.41
2024-02-29T00:36:40.894Z,101658.66
2024-02-29T00:39:14.538Z,101647.34
2024-02-29T00:41:41.887Z,101647.34
2024-02-29T00:44:08.611Z,101641.31
2024-02-29T00:46:38.568Z,101649.16
2024-02-29T00:49:05.873Z,101645.34
2024-02-29T00:51:32.752Z,101637.69
2024-02-29T00:53:59.470Z,101641.31
2024-02-29T00:56:26.409Z,101639.28
2024-02-29T00:58:52.965Z,101635.63
2024-02-29T01:01:19.672Z,101625.38
2024-02-29T01:03:46.279Z,101623.56
2024-02-29T01:06:12.898Z,101619.13
2024-02-29T01:08:39.616Z,101611.84
2024-02-29T01:11:06.654Z,101607.41
2024-02-29T01:13:33.713Z,101604.59
2024-02-29T01:16:00.325Z,101593.91
2024-02-29T01:18:26.843Z,101591.88
2024-02-29T01:20:53.941Z,101589.25
2024-02-29T01:23:20.497Z,101586.44
2024-02-29T01:25:47.099Z,101580.19
2024-02-29T01:28:13.743Z,101569.50
2024-02-29T01:30:40.338Z,101567.69
2024-02-29T01:33:06.941Z,101556.19
2024-02-29T01:35:33.673Z,101559.63
2024-02-29T01:38:00.191Z,101559.41
2024-02-29T01:40:26.718Z,101553.16
2024-02-29T01:42:53.726Z,101545.31
2024-02-29T01:45:20.342Z,101539.25
2024-02-29T01:47:47.023Z,101543.28
2024-02-29T01:50:16.719Z,101536.84
2024-02-29T01:52:45.414Z,101528.97
2024-02-29T01:55:12.809Z,101533.81
2024-02-29T01:57:40.382Z,101531.19
2024-02-29T02:00:09.532Z,101530.19
2024-02-29T02:02:39.071Z,101528.34
2024-02-29T02:05:09.250Z,101520.09
2024-02-29T02:07:40.889Z,101526.94
2024-02-29T02:10:09.459Z,101509.19
2024-02-29T02:12:36.599Z,101504.56
2024-02-29T02:15:04.364Z,101504.56
2024-02-29T02:17:32.915Z,101501.69
2024-02-29T02:20:01.328Z,101496.25
2024-02-29T02:22:28.983Z,101499.69
2024-02-29T02:24:55.548Z,101490.78
2024-02-29T02:27:22.431Z,101486.34
2024-02-29T02:29:48.974Z,101491.41
2024-02-29T02:32:15.536Z,101479.09
2024-02-29T02:34:42.058Z,101481.50
2024-02-29T02:37:08.766Z,101481.50
2024-02-29T02:39:35.391Z,101476.25
2024-02-29T02:42:02.422Z,101479.69
2024-02-29T02:44:29.276Z,101480.28
2024-02-29T02:46:55.802Z,101469.81
2024-02-29T02:49:24.457Z,101462.94
2024-02-29T02:51:51.015Z,101457.28
2024-02-29T02:54:17.572Z,101458.09
2024-02-29T02:56:44.068Z,101453.66
2024-02-29T02:59:10.620Z,101451.03
2024-02-29T03:01:38.179Z,101447.38
2024-02-29T03:04:08.040Z,101449.00
2024-02-29T03:06:34.666Z,101440.13
2024-02-29T03:09:01.250Z,101439.91
2024-02-29T03:11:27.842Z,101440.72
2024-02-29T03:13:54.635Z,101429.41
2024-02-29T03:16:23.626Z,101422.56
2024-02-29T03:18:50.592Z,101421.75
2024-02-29T03:21:17.194Z,101419.34
2024-02-29T03:23:43.779Z,101415.69
2024-02-29T03:26:10.507Z,101415.50
2024-02-29T03:28:37.062Z,101417.31
2024-02-29T03:31:05.068Z,101409.66
2024-02-29T03:33:31.958Z,101410.44
2024-02-29T03:35:58.558Z,101405.19
2024-02-29T03:38:25.095Z,101402.19
2024-02-29T03:40:53.173Z,101393.72
2024-02-29T03:43:19.875Z,101391.28
2024-02-29T03:45:46.528Z,101394.13
2024-02-29T03:48:13.170Z,101392.50
2024-02-29T03:50:39.727Z,101388.69
2024-02-29T03:53:06.364Z,101387.72
2024-02-29T03:55:33.185Z,101388.53
2024-02-29T03:57:59.951Z,101379.25
2024-02-29T04:00:26.980Z,101372.59
2024-02-29T04:02:53.512Z,101377.25
2024-02-29T04:05:25.098Z,101367.97
2024-02-29T04:07:54.495Z,101368.16
2024-02-29T04:10:21.119Z,101362.13
2024-02-29T04:12:47.675Z,101364.13
2024-02-29T04:15:14.330Z,101361.72
2024-02-29T04:17:40.865Z,101366.97
2024-02-29T04:20:09.761Z,101361.91
2024-02-29T04:22:36.537Z,101357.88
2024-02-29T04:25:03.229Z,101356.88
2024-02-29T04:27:29.775Z,101357.47
2024-02-29T04:29:56.257Z,101350.81
2024-02-29T04:32:22.822Z,101349.22
2024-02-29T04:34:49.359Z,101341.56
2024-02-29T04:37:16.074Z,101347.81
2024-02-29T04:39:42.867Z,101346.81
2024-02-29T04:42:09.468Z,101340.16
2024-02-29T04:44:36.011Z,101334.69
2024-02-29T04:47:02.612Z,101338.34
2024-02-29T04:49:29.153Z,101336.50
2024-02-29T04:51:55.921Z,101340.75
2024-02-29T04:54:22.484Z,101337.53
2024-02-29T04:56:49.230Z,101333.69
2024-02-29T04:59:15.708Z,101328.44
2024-02-29T05:01:42.305Z,101321.38
2024-02-29T05:04:08.944Z,101327.03
2024-02-29T05:06:35.553Z,101315.72
2024-02-29T05:09:02.105Z,101321.97
2024-02-29T05:11:28.758Z,101311.28
2024-02-29T05:13:55.448Z,101314.50
2024-02-29T05:16:22.204Z,101299.78
2024-02-29T05:18:49.188Z,101307.25
2024-02-29T05:21:15.732Z,101296.75
2024-02-29T05:23:42.233Z,101296.75
2024-02-29T05:26:09.166Z,101296.75
2024-02-29T05:28:35.736Z,101291.50
2024-02-29T05:31:04.520Z,101282.63
2024-02-29T05:33:31.208Z,101282.22
2024-02-29T05:35:57.851Z,101284.63
2024-02-29T05:38:24.338Z,101272.31
2024-02-29T05:40:51.938Z,101272.31
2024-02-29T05:43:18.584Z,101272.31
2024-02-29T05:45:45.130Z,101276.56
2024-02-29T05:48:11.782Z,101264.25
2024-02-29T05:50:38.342Z,101264.25
2024-02-29T05:53:05.347Z,101261.63
2024-02-29T05:55:34.554Z,101267.69
2024-02-29T05:58:01.212Z,101266.66
2024-02-29T06:00:27.779Z,101265.66
2024-02-29T06:02:54.345Z,101262.81
2024-02-29T06:05:21.278Z,101264.44
2024-02-29T06:07:47.935Z,101259.19
2024-02-29T06:10:14.710Z,101259.19
2024-02-29T06:12:41.601Z,101255.53
2024-02-29T06:15:11.203Z,101248.47
2024-02-29T06:17:39.399Z,101254.31
2024-02-29T06:20:11.443Z,101238.59
2024-02-29T06:22:40.676Z,101251.47
2024-02-29T06:25:09.967Z,101255.69
2024-02-29T06:27:37.394Z,101263.16
2024-02-29T06:30:05.411Z,101257.91
2024-02-29T06:32:32.126Z,101258.69
2024-02-29T06:34:58.751Z,101259.31
2024-02-29T06:37:25.224Z,101260.91
2024-02-29T06:39:51.841Z,101264.34
2024-02-29T06:42:18.736Z,101255.47
2024-02-29T06:44:45.421Z,101251.00
2024-02-29T06:47:11.962Z,101252.63
2024-02-29T06:49:38.545Z,101250.59
2024-02-29T06:52:05.463Z,101242.50
2024-02-29T06:54:32.008Z,101252.81
2024-02-29T06:56:58.574Z,101247.34
2024-02-29T06:59:26.576Z,101240.06
2024-02-29T07:01:53.205Z,101250.13
2024-02-29T07:04:19.945Z,101235.19
2024-02-29T07:06:46.723Z,101238.41
2024-02-29T07:09:13.276Z,101231.94
2024-02-29T07:11:41.667Z,101226.47
2024-02-29T07:14:08.347Z,101236.56
2024-02-29T07:16:37.105Z,101227.88
2024-02-29T07:19:05.166Z,101231.88
2024-02-29T07:21:33.253Z,101228.22
2024-02-29T07:23:59.870Z,101220.94
2024-02-29T07:26:27.296Z,101226.00
2024-02-29T07:28:53.826Z,101216.28
2024-02-29T07:31:21.422Z,101214.25
2024-02-29T07:33:48.130Z,101216.03
2024-02-29T07:36:14.719Z,101220.47
2024-02-29T07:38:41.292Z,101217.84
2024-02-29T07:41:07.781Z,101212.41
2024-02-29T07:43:34.741Z,101218.25
2024-02-29T07:46:01.470Z,101210.97
2024-02-29T07:48:30.615Z,101212.34
2024-02-29T07:50:57.316Z,101206.09
2024-02-29T07:53:23.894Z,101204.84
2024-02-29T07:55:50.563Z,101204.63
2024-02-29T07:58:17.217Z,101206.25
2024-02-29T08:00:47.729Z,101204.22
2024-02-29T08:03:14.237Z,101202.97
2024-02-29T08:05:40.872Z,101195.69
2024-02-29T08:08:09.059Z,101199.69
2024-02-29T08:10:35.586Z,101192.19
2024-02-29T08:13:02.314Z,101198.81
2024-02-29T08:15:28.850Z,101201.22
2024-02-29T08:17:55.510Z,101198.19
2024-02-29T08:20:24.814Z,101200.38
2024-02-29T08:22:55.147Z,101192.06
2024-02-29T08:25:27.223Z,101189.00
2024-02-29T08:27:54.388Z,101185.94
2024-02-29T08:30:21.457Z,101193.63
2024-02-29T08:32:49.879Z,101183.69
2024-02-29T08:35:17.440Z,101182.44
2024-02-29T08:37:45.211Z,101185.19
2024-02-29T08:40:12.162Z,101178.94
2024-02-29T08:42:39.301Z,101179.28
2024-02-29T08:45:07.995Z,101174.63
2024-02-29T08:47:34.542Z,101174.25
2024-02-29T08:50:01.055Z,101178.94
2024-02-29T08:52:27.652Z,101177.31
2024-02-29T08:54:54.263Z,101183.97
2024-02-29T08:57:20.911Z,101176.31
2024-02-29T08:59:47.436Z,101170.25
2024-02-29T09:02:14.172Z,101178.72
2024-02-29T09:04:40.799Z,101174.47
2024-02-29T09:07:07.276Z,101167.97
2024-02-29T09:09:37.743Z,101169.38
2024-02-29T09:12:07.523Z,101163.91
2024-02-29T09:14:34.907Z,101162.88
2024-02-29T09:17:01.760Z,101168.94
2024-02-29T09:19:28.348Z,101168.94
2024-02-29T09:21:55.022Z,101164.47
2024-02-29T09:24:22.696Z,101158.44
2024-02-29T09:26:50.060Z,101149.16
2024-02-29T09:29:16.631Z,101153.38
2024-02-29T09:31:44.075Z,101149.31
2024-02-29T09:34:10.816Z,101149.88
2024-02-29T09:36:38.458Z,101146.81
2024-02-29T09:39:08.112Z,101140.97
2024-02-29T09:41:58.486Z,101143.16
2024-02-29T09:44:21.648Z,101137.69
2024-02-29T09:46:51.635Z,101134.03
2024-02-29T09:49:18.440Z,101137.47
2024-02-29T09:51:45.872Z,101134.41
2024-02-29T09:54:18.999Z,101135.78
2024-02-29T09:56:49.028Z,101134.78
2024-02-29T09:59:20.153Z,101132.72
2024-02-29T10:01:50.525Z,101135.69
2024-02-29T10:04:17.915Z,101133.44
2024-02-29T10:06:44.765Z,101130.97
2024-02-29T10:09:11.542Z,101126.06
2024-02-29T10:11:42.216Z,101127.00
2024-02-29T10:14:27.727Z,101114.78
2024-02-29T10:16:56.098Z,101117.56
2024-02-29T10:19:24.026Z,101117.56
2024-02-29T10:21:52.341Z,101111.28
2024-02-29T10:24:20.451Z,101111.03
2024-02-29T10:26:47.466Z,101111.16
2024-02-29T10:29:18.137Z,101109.09
2024-02-29T10:31:44.931Z,101107.41
2024-02-29T10:34:12.064Z,101103.75
2024-02-29T10:36:39.752Z,101105.34
2024-02-29T10:39:06.523Z,101097.91
2024-02-29T10:41:33.785Z,101087.97
2024-02-29T10:44:07.332Z,101091.75
2024-02-29T10:46:36.921Z,101087.06
2024-02-29T10:49:08.345Z,101091.06
2024-02-29T10:51:44.196Z,101086.97
2024-02-29T10:54:20.712Z,101086.38
2024-02-29T10:56:49.327Z,101077.13
2024-02-29T10:59:20.283Z,101078.94
2024-02-29T11:01:48.590Z,101081.78
2024-02-29T11:04:18.334Z,101072.53
2024-02-29T11:06:47.812Z,101082.81
2024-02-29T11:09:17.183Z,101075.72
2024-02-29T11:11:46.398Z,101084.19
2024-02-29T11:14:14.207Z,101076.09
2024-02-29T11:16:44.888Z,101084.56
2024-02-29T11:19:15.974Z,101082.94
2024-02-29T11:21:42.952Z,101078.25
2024-02-29T11:24:10.850Z,101086.16
2024-02-29T11:26:38.420Z,101076.09
2024-02-29T11:29:19.941Z,101077.47
2024-02-29T11:31:56.684Z,101077.25
2024-02-29T11:34:23.540Z,101071.75
2024-02-29T11:36:51.606Z,101062.59
2024-02-29T11:39:21.965Z,101057.34
2024-02-29T11:42:02.073Z,101057.56
2024-02-29T11:44:28.608Z,101055.84
2024-02-29T11:46:55.470Z,101054.81
2024-02-29T11:49:24.090Z,101048.53
2024-02-29T11:51:52.204Z,101043.81
2024-02-29T11:54:19.905Z,101042.09
2024-02-29T11:56:48.329Z,101037.19
2024-02-29T11:59:16.868Z,101038.22
2024-02-29T12:01:45.187Z,101035.59
2024-02-29T12:04:12.497Z,101038.78
2024-02-29T12:06:41.052Z,101027.81
2024-02-29T12:09:13.926Z,101027.34
2024-02-29T12:11:43.006Z,101024.72
2024-02-29T12:14:09.906Z,101022.88
2024-02-29T12:16:37.810Z,101016.94
2024-02-29T12:19:04.701Z,101007.78
2024-02-29T12:21:31.398Z,101006.84
2024-02-29T12:23:58.200Z,101006.38
2024-02-29T12:26:26.265Z,101001.19
2024-02-29T12:28:53.183Z,100995.72
2024-02-29T12:31:20.279Z,100999.03
2024-02-29T12:33:48.074Z,100992.50
2024-02-29T12:36:20.092Z,100989.41
2024-02-29T12:38:47.517Z,100993.06
2024-02-29T12:41:16.898Z,100987.56
2024-02-29T12:43:49.538Z,100982.31
2024-02-29T12:46:17.616Z,100986.78
2024-02-29T12:48:45.022Z,100976.25
2024-02-29T12:51:11.762Z,100978.19
2024-02-29T12:53:38.536Z,100976.25
2024-02-29T12:56:06.304Z,100962.50
2024-02-29T12:58:33.406Z,100964.66
2024-02-29T13:01:01.000Z,100957.56
2024-02-29T13:03:28.428Z,100948.31
2024-02-29T13:05:55.773Z,100950.94
2024-02-29T13:08:23.364Z,100939.38
2024-02-29T13:10:50.818Z,100941.78
2024-02-29T13:13:18.772Z,100924.69
2024-02-29T13:15:45.658Z,100926.19
2024-02-29T13:18:12.290Z,100916.69
2024-02-29T13:20:38.895Z,100915.66
2024-02-29T13:23:05.431Z,100914.63
2024-02-29T13:25:32.151Z,100906.50
2024-02-29T13:27:59.143Z,100902.03
2024-02-29T13:30:25.835Z,100899.41
2024-02-29T13:32:52.467Z,100901.56
2024-02-29T13:35:19.098Z,100896.06
2024-02-29T13:37:47.773Z,100892.28
2024-02-29T13:40:14.515Z,100895.16
2024-02-29T13:42:43.432Z,100880.88
2024-02-29T13:45:11.679Z,100882.94
2024-02-29T13:47:52.285Z,100879.50
2024-02-29T13:50:21.194Z,100883.66
2024-02-29T13:52:48.648Z,100873.13
2024-02-29T13:55:15.619Z,100877.03
2024-02-29T13:57:42.363Z,100863.28
2024-02-29T14:00:09.958Z,100858.03
2024-02-29T14:02:36.799Z,100860.31
2024-02-29T14:05:04.590Z,100853.78
2024-02-29T14:07:31.124Z,100848.06
2024-02-29T14:09:57.814Z,100847.81
2024-02-29T14:12:26.376Z,100840.72
2024-02-29T14:14:53.171Z,100835.47
2024-02-29T14:17:20.778Z,100834.97
2024-02-29T14:19:47.353Z,100827.97
2024-02-29T14:22:15.288Z,100826.22
2024-02-29T14:24:42.192Z,100820.94
2024-02-29T14:27:09.266Z,100822.53
2024-02-29T14:29:35.955Z,100818.06
2024-02-29T14:32:02.888Z,100815.69
2024-02-29T14:34:29.786Z,100807.31
2024-02-29T14:36:56.827Z,100806.28
2024-02-29T14:39:23.452Z,100801.47
2024-02-29T14:41:50.116Z,100802.75
2024-02-29T14:44:17.077Z,100797.25
2024-02-29T14:46:44.283Z,100798.84
2024-02-29T14:49:11.582Z,100791.28
2024-02-29T14:51:38.161Z,100789.19
2024-02-29T14:54:05.319Z,100787.84
2024-02-29T14:56:35.193Z,100780.41
2024-02-29T14:59:01.834Z,100778.25
2024-02-29T15:01:28.795Z,100769.22
2024-02-29T15:03:55.575Z,100766.34
2024-02-29T15:06:22.292Z,100760.13
2024-02-29T15:08:49.026Z,100758.88
2024-02-29T15:11:15.603Z,100755.75
2024-02-29T15:13:42.321Z,100758.63
2024-02-29T15:16:09.289Z,100758.38
2024-02-29T15:18:36.516Z,100753.13
2024-02-29T15:21:03.063Z,100743.84
2024-02-29T15:23:29.573Z,100740.44
2024-02-29T15:25:56.785Z,100742.03
2024-02-29T15:28:25.792Z,100733.81
2024-02-29T15:30:52.851Z,100727.72
2024-02-29T15:33:21.488Z,100728.53
2024-02-29T15:35:48.683Z,100723.25
2024-02-29T15:38:18.398Z,100724.88
2024-02-29T15:40:47.788Z,100719.34
2024-02-29T15:43:15.492Z,100718.47
2024-02-29T15:45:42.272Z,100722.38
2024-02-29T15:48:09.173Z,100720.69
2024-02-29T15:50:35.839Z,100715.66
2024-02-29T15:53:02.483Z,100708.03
2024-02-29T15:55:29.457Z,100712.75
2024-02-29T15:57:56.254Z,100701.66
2024-02-29T16:00:25.736Z,100705.56
2024-02-29T16:02:52.541Z,100700.53
2024-02-29T16:05:19.548Z,100696.06
2024-02-29T16:07:46.128Z,100696.28
2024-02-29T16:10:13.065Z,100697.34
2024-02-29T16:12:40.634Z,100692.31
2024-02-29T16:15:07.929Z,100691.50
2024-02-29T16:17:36.278Z,100687.03
2024-02-29T16:20:03.355Z,100686.00
2024-02-29T16:22:29.918Z,100683.38
2024-02-29T16:24:56.636Z,100686.25
2024-02-29T16:27:23.409Z,100679.38
2024-02-29T16:29:49.940Z,100681.44
2024-02-29T16:32:16.486Z,100676.97
2024-02-29T16:34:43.057Z,100676.19
2024-02-29T16:37:09.603Z,100674.59
2024-02-29T16:39:36.436Z,100674.91
2024-02-29T16:42:03.051Z,100664.38
2024-02-29T16:44:30.708Z,100665.97
2024-02-29T16:46:57.450Z,100669.66
2024-02-29T16:49:24.137Z,100656.25
2024-02-29T16:51:51.208Z,100660.94
2024-02-29T16:54:17.744Z,100660.38
2024-02-29T16:56:46.115Z,100651.69
2024-02-29T16:59:13.316Z,100650.91
2024-02-29T17:01:41.674Z,100654.00
2024-02-29T17:04:08.478Z,100647.47
2024-02-29T17:06:36.500Z,100647.94
2024-02-29T17:09:04.162Z,100645.06
2024-02-29T17:11:30.822Z,100642.69
2024-02-29T17:13:57.721Z,100650.81
2024-02-29T17:18:50.706Z,100642.59
2024-02-29T17:21:18.515Z,100640.44
2024-02-29T17:23:45.037Z,100642.81
2024-02-29T17:26:18.270Z,100638.59
2024-02-29T17:28:45.213Z,100635.16
2024-02-29T17:31:11.845Z,100633.81
2024-02-29T17:33:39.555Z,100621.44
2024-02-29T17:36:07.356Z,100630.13
2024-02-29T17:38:34.612Z,100619.06
2024-02-29T17:41:01.113Z,100622.47
2024-02-29T17:43:27.913Z,100611.97
2024-02-29T17:45:54.624Z,100611.16
2024-02-29T17:48:21.173Z,100619.06
2024-02-29T17:50:47.760Z,100613.66
2024-02-29T17:53:14.313Z,100614.69
2024-02-29T17:55:40.835Z,100613.88
2024-02-29T17:58:07.385Z,100608.84
2024-02-29T18:00:34.520Z,100612.53
2024-02-29T18:03:01.986Z,100607.25
2024-02-29T18:05:28.604Z,100603.59
2024-02-29T18:07:59.142Z,100603.91
2024-02-29T18:10:29.966Z,100602.56
2024-02-29T18:12:58.573Z,100596.75
2024-02-29T18:15:25.318Z,100596.75
2024-02-29T18:17:52.101Z,100596.75
2024-02-29T18:20:18.814Z,100596.97
2024-02-29T18:22:45.598Z,100596.19
2024-02-29T18:25:12.924Z,100587.72
2024-02-29T18:27:39.528Z,100582.47
2024-02-29T18:30:06.690Z,100579.84
2024-02-29T18:32:33.659Z,100582.69
2024-02-29T18:35:02.050Z,100593.00
2024-02-29T18:37:28.709Z,100583.81
2024-02-29T18:39:55.335Z,100579.34
2024-02-29T18:42:21.928Z,100581.19
2024-02-29T18:44:48.898Z,100572.75
2024-02-29T18:47:15.686Z,100574.09
2024-02-29T18:49:42.278Z,100572.50
2024-02-29T18:52:09.953Z,100563.25
2024-02-29T18:54:36.669Z,100577.44
2024-02-29T18:57:03.271Z,100567.72
2024-02-29T18:59:30.786Z,100566.69
2024-02-29T19:01:57.597Z,100564.03
2024-02-29T19:04:24.583Z,100565.88
2024-02-29T19:06:51.491Z,100555.59
2024-02-29T19:09:18.113Z,100556.63
2024-02-29T19:11:45.203Z,100558.22
2024-02-29T19:14:12.249Z,100560.84
2024-02-29T19:16:41.388Z,100551.13
2024-02-29T19:19:10.363Z,100560.63
2024-02-29T19:21:40.096Z,100544.84
2024-02-29T19:24:08.523Z,100545.88
2024-02-29T19:26:35.673Z,100549.78
2024-02-29T19:29:02.186Z,100540.03
2024-02-29T19:31:28.685Z,100540.84
2024-02-29T19:33:55.245Z,100535.81
2024-02-29T19:36:24.401Z,100540.28
2024-02-29T19:38:52.461Z,100539.50
2024-02-29T19:41:19.141Z,100529.75
2024-02-29T19:43:45.645Z,100533.44
2024-02-29T19:46:12.312Z,100528.16
2024-02-29T19:48:38.899Z,100526.34
2024-02-29T19:51:07.947Z,100525.53
2024-02-29T19:53:36.841Z,100520.28
2024-02-29T19:56:03.607Z,100521.31
2024-02-29T19:58:30.207Z,100519.72
2024-02-29T20:01:01.822Z,100519.97
2024-02-29T20:03:29.398Z,100518.13
2024-02-29T20:05:57.290Z,100511.25
2024-02-29T20:08:25.057Z,100509.44
2024-02-29T20:10:51.700Z,100509.66
2024-02-29T20:13:18.354Z,100502.56
2024-02-29T20:15:44.953Z,100505.22
2024-02-29T20:18:11.617Z,100509.66
2024-02-29T20:20:38.502Z,100506.81
2024-02-29T20:23:05.156Z,100511.03
2024-02-29T20:25:31.861Z,100509.44
2024-02-29T20:27:59.433Z,100506.00
2024-02-29T20:30:28.060Z,100507.59
2024-02-29T20:32:54.944Z,100504.97
2024-02-29T20:35:21.674Z,100510.22
2024-02-29T20:37:48.276Z,100505.22
2024-02-29T20:40:15.089Z,100499.72
2024-02-29T20:42:42.015Z,100495.25
2024-02-29T20:45:08.908Z,100491.81
2024-02-29T20:47:35.483Z,100493.66
2024-02-29T20:50:02.915Z,100495.47
2024-02-29T20:52:29.698Z,100490.22
2024-02-29T20:54:56.515Z,100494.44
2024-02-29T20:57:24.702Z,100486.31
2024-02-29T20:59:51.511Z,100477.63
2024-02-29T21:02:18.131Z,100466.06
2024-02-29T21:04:45.359Z,100467.91
2024-02-29T21:07:12.042Z,100462.63
2024-02-29T21:09:38.697Z,100461.84
2024-02-29T21:12:05.470Z,100461.84
2024-02-29T21:14:32.037Z,100456.59
2024-02-29T21:16:58.517Z,100446.06
2024-02-29T21:19:25.222Z,100447.09
2024-02-29T21:21:51.874Z,100440.81
2024-02-29T21:24:18.480Z,100436.09
2024-02-29T21:26:44.983Z,100427.66
2024-02-29T21:29:11.488Z,100429.47
2024-02-29T21:31:37.987Z,100426.06
2024-02-29T21:34:05.320Z,100421.84
2024-02-29T21:36:32.131Z,100420.00
2024-02-29T21:38:58.585Z,100421.59
2024-02-29T21:41:25.191Z,100424.47
2024-02-29T21:43:52.095Z,100419.44
2024-02-29T21:46:18.653Z,100414.97
2024-02-29T21:48:48.263Z,100412.34
2024-02-29T21:51:19.229Z,100409.72
2024-02-29T21:53:46.428Z,100401.81
2024-02-29T21:56:13.322Z,100403.41
2024-02-29T21:58:41.852Z,100403.91
2024-02-29T22:01:08.850Z,100396.25
2024-02-29T22:03:35.795Z,100398.88
2024-02-29T22:06:02.322Z,100388.59
2024-02-29T22:08:28.966Z,100378.59
2024-02-29T22:10:55.586Z,100388.03
2024-02-29T22:13:22.233Z,100377.53
2024-02-29T22:15:49.106Z,100374.91
2024-02-29T22:18:16.152Z,100375.97
2024-02-29T22:20:46.776Z,100372.78
2024-02-29T22:23:14.324Z,100362.75
2024-02-29T22:25:41.133Z,100370.06
2024-02-29T22:28:07.753Z,100361.88
2024-02-29T22:30:34.336Z,100360.84
2024-02-29T22:33:00.973Z,100361.63
2024-02-29T22:35:27.603Z,100363.47
2024-02-29T22:37:57.166Z,100359.78
2024-02-29T22:40:23.771Z,100357.16
2024-02-29T22:42:50.383Z,100351.09
2024-02-29T22:45:16.928Z,100355.81
2024-02-29T22:47:44.583Z,100349.53
2024-02-29T22:50:11.689Z,100350.31
2024-02-29T22:52:38.416Z,100352.69
2024-02-29T22:55:06.741Z,100344.00
2024-02-29T22:57:34.456Z,100347.44
2024-02-29T23:00:01.752Z,100344.25
2024-02-29T23:02:29.094Z,100341.63
2024-02-29T23:04:55.761Z,100342.44
2024-02-29T23:07:22.719Z,100340.03
2024-02-29T23:09:49.816Z,100340.84
2024-02-29T23:12:17.267Z,100342.66
2024-02-29T23:14:45.173Z,100334.22
2024-02-29T23:17:11.811Z,100334.22
2024-02-29T23:19:38.263Z,100326.81
2024-02-29T23:22:04.850Z,100330.47
2024-02-29T23:24:31.529Z,100329.44
2024-02-29T23:26:58.004Z,100335.19
2024-02-29T23:29:24.534Z,100325.72
2024-02-29T23:31:51.129Z,100317.25
2024-02-29T23:34:19.007Z,100319.91
2024-02-29T23:36:48.567Z,100320.94
2024-02-29T23:39:15.195Z,100314.09
2024-02-29T23:41:41.765Z,100311.44
2024-02-29T23:44:09.401Z,100299.34
2024-02-29T23:46:35.935Z,100306.44
2024-02-29T23:49:02.686Z,100301.97
2024-02-29T23:51:29.304Z,100294.88
2024-02-29T23:53:55.839Z,100291.22
2024-02-29T23:56:22.313Z,100292.00
2024-02-29T23:58:48.859Z,100289.38
